sensor_id;sensor_type;location;lat;lon;timestamp;P1;durP1;ratioP1;P2;durP2;ratioP2
2658;SDS011;1339;53.304;10.406;2023-12-20T00:00:21;11.63;;;4.20;;
2658;SDS011;1339;53.304;10.406;2023-12-20T00:02:48;7.60;;;4.10;;
2658;SDS011;1339;53.304;10.406;2023-12-20T00:05:15;10.50;;;3.75;;
2658;SDS011;1339;53.304;10.406;2023-12-20T00:07:42;8.68;;;4.53;;
2658;SDS011;1339;53.304;10.406;2023-12-20T00:10:11;10.30;;;3.40;;
2658;SDS011;1339;53.304;10.406;2023-12-20T00:12:38;6.82;;;3.58;;
2658;SDS011;1339;53.304;10.406;2023-12-20T00:15:06;11.75;;;3.40;;
2658;SDS011;1339;53.304;10.406;2023-12-20T00:17:33;9.77;;;3.30;;
2658;SDS011;1339;53.304;10.406;2023-12-20T00:20:01;8.35;;;3.22;;
2658;SDS011;1339;53.304;10.406;2023-12-20T00:22:28;12.77;;;5.03;;
2658;SDS011;1339;53.304;10.406;2023-12-20T00:24:55;14.68;;;3.08;;
2658;SDS011;1339;53.304;10.406;2023-12-20T00:27:23;5.68;;;2.65;;
2658;SDS011;1339;53.304;10.406;2023-12-20T00:29:50;12.95;;;2.85;;
2658;SDS011;1339;53.304;10.406;2023-12-20T00:32:17;8.45;;;2.97;;
2658;SDS011;1339;53.304;10.406;2023-12-20T00:34:45;6.20;;;3.45;;
2658;SDS011;1339;53.304;10.406;2023-12-20T00:37:12;9.23;;;3.15;;
2658;SDS011;1339;53.304;10.406;2023-12-20T00:39:39;10.13;;;3.42;;
2658;SDS011;1339;53.304;10.406;2023-12-20T00:42:06;17.55;;;3.13;;
2658;SDS011;1339;53.304;10.406;2023-12-20T00:44:34;13.63;;;3.85;;
2658;SDS011;1339;53.304;10.406;2023-12-20T00:47:02;20.08;;;4.00;;
2658;SDS011;1339;53.304;10.406;2023-12-20T00:49:29;9.82;;;4.40;;
2658;SDS011;1339;53.304;10.406;2023-12-20T00:51:56;11.63;;;2.60;;
2658;SDS011;1339;53.304;10.406;2023-12-20T00:54:23;13.57;;;3.33;;
2658;SDS011;1339;53.304;10.406;2023-12-20T00:56:50;13.57;;;3.53;;
2658;SDS011;1339;53.304;10.406;2023-12-20T00:59:19;10.07;;;2.70;;
2658;SDS011;1339;53.304;10.406;2023-12-20T01:01:47;8.82;;;2.50;;
2658;SDS011;1339;53.304;10.406;2023-12-20T01:04:14;8.88;;;3.35;;
2658;SDS011;1339;53.304;10.406;2023-12-20T01:06:41;7.28;;;2.80;;
2658;SDS011;1339;53.304;10.406;2023-12-20T01:09:09;9.05;;;3.10;;
2658;SDS011;1339;53.304;10.406;2023-12-20T01:11:36;8.07;;;2.40;;
2658;SDS011;1339;53.304;10.406;2023-12-20T01:14:03;6.93;;;2.30;;
2658;SDS011;1339;53.304;10.406;2023-12-20T01:16:30;7.55;;;3.25;;
2658;SDS011;1339;53.304;10.406;2023-12-20T01:18:59;11.73;;;3.22;;
2658;SDS011;1339;53.304;10.406;2023-12-20T01:21:26;10.80;;;2.65;;
2658;SDS011;1339;53.304;10.406;2023-12-20T01:23:53;5.93;;;2.47;;
2658;SDS011;1339;53.304;10.406;2023-12-20T01:26:20;15.85;;;2.80;;
2658;SDS011;1339;53.304;10.406;2023-12-20T01:28:47;7.68;;;3.20;;
2658;SDS011;1339;53.304;10.406;2023-12-20T01:31:14;8.77;;;2.60;;
2658;SDS011;1339;53.304;10.406;2023-12-20T01:33:41;14.23;;;2.60;;
2658;SDS011;1339;53.304;10.406;2023-12-20T01:36:09;13.93;;;3.40;;
2658;SDS011;1339;53.304;10.406;2023-12-20T01:38:37;9.02;;;2.85;;
2658;SDS011;1339;53.304;10.406;2023-12-20T01:41:04;12.25;;;2.90;;
2658;SDS011;1339;53.304;10.406;2023-12-20T01:43:31;9.45;;;2.05;;
2658;SDS011;1339;53.304;10.406;2023-12-20T01:45:58;13.98;;;2.33;;
2658;SDS011;1339;53.304;10.406;2023-12-20T01:48:26;11.32;;;3.15;;
2658;SDS011;1339;53.304;10.406;2023-12-20T01:50:56;15.75;;;3.60;;
2658;SDS011;1339;53.304;10.406;2023-12-20T01:53:25;10.05;;;2.50;;
2658;SDS011;1339;53.304;10.406;2023-12-20T01:55:54;10.60;;;2.35;;
2658;SDS011;1339;53.304;10.406;2023-12-20T01:58:21;10.20;;;3.88;;
2658;SDS011;1339;53.304;10.406;2023-12-20T02:00:48;12.77;;;2.30;;
2658;SDS011;1339;53.304;10.406;2023-12-20T02:03:16;10.23;;;3.40;;
2658;SDS011;1339;53.304;10.406;2023-12-20T02:05:43;10.73;;;3.95;;
2658;SDS011;1339;53.304;10.406;2023-12-20T02:08:11;11.23;;;2.75;;
2658;SDS011;1339;53.304;10.406;2023-12-20T02:10:39;10.52;;;2.95;;
2658;SDS011;1339;53.304;10.406;2023-12-20T02:13:07;9.20;;;2.50;;
2658;SDS011;1339;53.304;10.406;2023-12-20T02:15:34;9.55;;;2.80;;
2658;SDS011;1339;53.304;10.406;2023-12-20T02:18:03;7.25;;;2.33;;
2658;SDS011;1339;53.304;10.406;2023-12-20T02:20:30;11.48;;;3.22;;
2658;SDS011;1339;53.304;10.406;2023-12-20T02:22:59;7.88;;;3.22;;
2658;SDS011;1339;53.304;10.406;2023-12-20T02:25:26;14.43;;;3.95;;
2658;SDS011;1339;53.304;10.406;2023-12-20T02:27:53;12.77;;;3.97;;
2658;SDS011;1339;53.304;10.406;2023-12-20T02:30:20;13.57;;;2.75;;
2658;SDS011;1339;53.304;10.406;2023-12-20T02:32:47;6.03;;;2.65;;
2658;SDS011;1339;53.304;10.406;2023-12-20T02:35:15;7.22;;;3.45;;
2658;SDS011;1339;53.304;10.406;2023-12-20T02:37:42;10.98;;;4.93;;
2658;SDS011;1339;53.304;10.406;2023-12-20T02:40:11;7.53;;;4.95;;
2658;SDS011;1339;53.304;10.406;2023-12-20T02:42:38;11.55;;;4.22;;
2658;SDS011;1339;53.304;10.406;2023-12-20T02:45:05;9.98;;;4.25;;
2658;SDS011;1339;53.304;10.406;2023-12-20T02:47:33;14.18;;;4.82;;
2658;SDS011;1339;53.304;10.406;2023-12-20T02:50:00;9.90;;;4.90;;
2658;SDS011;1339;53.304;10.406;2023-12-20T02:52:27;14.00;;;5.78;;
2658;SDS011;1339;53.304;10.406;2023-12-20T02:54:54;19.15;;;6.57;;
2658;SDS011;1339;53.304;10.406;2023-12-20T02:57:22;10.05;;;6.40;;
2658;SDS011;1339;53.304;10.406;2023-12-20T02:59:50;13.52;;;6.55;;
2658;SDS011;1339;53.304;10.406;2023-12-20T03:02:17;10.45;;;6.07;;
2658;SDS011;1339;53.304;10.406;2023-12-20T03:04:44;10.80;;;5.57;;
2658;SDS011;1339;53.304;10.406;2023-12-20T03:07:11;9.88;;;5.82;;
2658;SDS011;1339;53.304;10.406;2023-12-20T03:09:38;8.45;;;5.13;;
2658;SDS011;1339;53.304;10.406;2023-12-20T03:12:05;8.98;;;5.38;;
2658;SDS011;1339;53.304;10.406;2023-12-20T03:14:33;11.65;;;6.90;;
2658;SDS011;1339;53.304;10.406;2023-12-20T03:17:00;13.88;;;7.55;;
2658;SDS011;1339;53.304;10.406;2023-12-20T03:19:27;13.60;;;5.53;;
2658;SDS011;1339;53.304;10.406;2023-12-20T03:21:55;9.02;;;5.90;;
2658;SDS011;1339;53.304;10.406;2023-12-20T03:24:22;19.17;;;6.95;;
2658;SDS011;1339;53.304;10.406;2023-12-20T03:26:49;9.55;;;5.25;;
2658;SDS011;1339;53.304;10.406;2023-12-20T03:29:16;11.45;;;6.38;;
2658;SDS011;1339;53.304;10.406;2023-12-20T03:31:44;10.15;;;5.95;;
2658;SDS011;1339;53.304;10.406;2023-12-20T03:34:11;13.43;;;5.45;;
2658;SDS011;1339;53.304;10.406;2023-12-20T03:36:40;17.60;;;4.90;;
2658;SDS011;1339;53.304;10.406;2023-12-20T03:39:07;6.35;;;4.55;;
2658;SDS011;1339;53.304;10.406;2023-12-20T03:41:35;13.20;;;5.57;;
2658;SDS011;1339;53.304;10.406;2023-12-20T03:44:02;11.32;;;5.20;;
2658;SDS011;1339;53.304;10.406;2023-12-20T03:46:29;17.88;;;5.60;;
2658;SDS011;1339;53.304;10.406;2023-12-20T03:48:58;9.77;;;5.28;;
2658;SDS011;1339;53.304;10.406;2023-12-20T03:51:25;10.40;;;4.07;;
2658;SDS011;1339;53.304;10.406;2023-12-20T03:53:52;11.88;;;4.43;;
2658;SDS011;1339;53.304;10.406;2023-12-20T03:56:19;15.77;;;4.15;;
2658;SDS011;1339;53.304;10.406;2023-12-20T03:58:46;7.53;;;3.35;;
2658;SDS011;1339;53.304;10.406;2023-12-20T04:01:13;8.55;;;3.95;;
2658;SDS011;1339;53.304;10.406;2023-12-20T04:03:41;4.80;;;2.70;;
2658;SDS011;1339;53.304;10.406;2023-12-20T04:06:09;15.20;;;4.05;;
2658;SDS011;1339;53.304;10.406;2023-12-20T04:08:36;8.60;;;3.50;;
2658;SDS011;1339;53.304;10.406;2023-12-20T04:11:03;4.03;;;3.50;;
2658;SDS011;1339;53.304;10.406;2023-12-20T04:13:30;9.13;;;4.10;;
2658;SDS011;1339;53.304;10.406;2023-12-20T04:15:57;7.70;;;4.20;;
2658;SDS011;1339;53.304;10.406;2023-12-20T04:18:24;8.35;;;3.35;;
2658;SDS011;1339;53.304;10.406;2023-12-20T04:20:53;7.97;;;3.45;;
2658;SDS011;1339;53.304;10.406;2023-12-20T04:23:21;12.45;;;3.10;;
2658;SDS011;1339;53.304;10.406;2023-12-20T04:25:48;12.88;;;4.70;;
2658;SDS011;1339;53.304;10.406;2023-12-20T04:28:15;7.47;;;3.85;;
2658;SDS011;1339;53.304;10.406;2023-12-20T04:30:42;14.40;;;4.57;;
2658;SDS011;1339;53.304;10.406;2023-12-20T04:33:09;15.63;;;3.85;;
2658;SDS011;1339;53.304;10.406;2023-12-20T04:35:37;19.17;;;3.60;;
2658;SDS011;1339;53.304;10.406;2023-12-20T04:38:05;8.32;;;4.07;;
2658;SDS011;1339;53.304;10.406;2023-12-20T04:40:34;8.50;;;3.47;;
2658;SDS011;1339;53.304;10.406;2023-12-20T04:43:01;13.30;;;5.90;;
2658;SDS011;1339;53.304;10.406;2023-12-20T04:45:28;9.63;;;5.38;;
2658;SDS011;1339;53.304;10.406;2023-12-20T04:47:55;8.23;;;4.38;;
2658;SDS011;1339;53.304;10.406;2023-12-20T04:50:23;11.88;;;4.43;;
2658;SDS011;1339;53.304;10.406;2023-12-20T04:52:50;17.05;;;5.57;;
2658;SDS011;1339;53.304;10.406;2023-12-20T04:55:17;8.13;;;4.07;;
2658;SDS011;1339;53.304;10.406;2023-12-20T04:57:46;8.13;;;5.45;;
2658;SDS011;1339;53.304;10.406;2023-12-20T05:00:13;10.68;;;4.47;;
2658;SDS011;1339;53.304;10.406;2023-12-20T05:02:41;15.30;;;5.07;;
2658;SDS011;1339;53.304;10.406;2023-12-20T05:05:08;10.07;;;5.40;;
2658;SDS011;1339;53.304;10.406;2023-12-20T05:07:35;11.38;;;5.43;;
2658;SDS011;1339;53.304;10.406;2023-12-20T05:10:02;10.48;;;5.43;;
2658;SDS011;1339;53.304;10.406;2023-12-20T05:12:30;15.20;;;6.07;;
2658;SDS011;1339;53.304;10.406;2023-12-20T05:14:58;9.55;;;4.72;;
2658;SDS011;1339;53.304;10.406;2023-12-20T05:17:25;15.85;;;5.75;;
2658;SDS011;1339;53.304;10.406;2023-12-20T05:19:53;9.00;;;5.30;;
2658;SDS011;1339;53.304;10.406;2023-12-20T05:22:20;8.13;;;4.82;;
2658;SDS011;1339;53.304;10.406;2023-12-20T05:24:47;12.93;;;3.85;;
2658;SDS011;1339;53.304;10.406;2023-12-20T05:27:14;9.75;;;5.30;;
2658;SDS011;1339;53.304;10.406;2023-12-20T05:29:41;13.10;;;4.97;;
2658;SDS011;1339;53.304;10.406;2023-12-20T05:32:09;16.00;;;5.28;;
2658;SDS011;1339;53.304;10.406;2023-12-20T05:34:38;13.00;;;4.30;;
2658;SDS011;1339;53.304;10.406;2023-12-20T05:37:05;16.33;;;4.60;;
2658;SDS011;1339;53.304;10.406;2023-12-20T05:39:33;10.65;;;5.07;;
2658;SDS011;1339;53.304;10.406;2023-12-20T05:42:00;27.30;;;4.78;;
2658;SDS011;1339;53.304;10.406;2023-12-20T05:44:27;7.88;;;4.78;;
2658;SDS011;1339;53.304;10.406;2023-12-20T05:46:54;9.30;;;4.47;;
2658;SDS011;1339;53.304;10.406;2023-12-20T05:49:22;9.93;;;5.00;;
2658;SDS011;1339;53.304;10.406;2023-12-20T05:51:49;15.82;;;4.50;;
2658;SDS011;1339;53.304;10.406;2023-12-20T05:54:16;11.43;;;4.47;;
2658;SDS011;1339;53.304;10.406;2023-12-20T05:56:43;14.77;;;5.60;;
2658;SDS011;1339;53.304;10.406;2023-12-20T05:59:11;15.57;;;4.63;;
2658;SDS011;1339;53.304;10.406;2023-12-20T06:01:38;8.95;;;4.53;;
2658;SDS011;1339;53.304;10.406;2023-12-20T06:04:06;11.10;;;4.70;;
2658;SDS011;1339;53.304;10.406;2023-12-20T06:06:34;14.77;;;4.93;;
2658;SDS011;1339;53.304;10.406;2023-12-20T06:09:01;8.80;;;3.92;;
2658;SDS011;1339;53.304;10.406;2023-12-20T06:11:29;14.10;;;4.80;;
2658;SDS011;1339;53.304;10.406;2023-12-20T06:13:56;12.45;;;4.75;;
2658;SDS011;1339;53.304;10.406;2023-12-20T06:16:23;14.40;;;5.32;;
2658;SDS011;1339;53.304;10.406;2023-12-20T06:18:50;8.15;;;4.45;;
2658;SDS011;1339;53.304;10.406;2023-12-20T06:21:17;10.07;;;4.65;;
2658;SDS011;1339;53.304;10.406;2023-12-20T06:23:46;15.93;;;5.15;;
2658;SDS011;1339;53.304;10.406;2023-12-20T06:26:13;13.15;;;5.75;;
2658;SDS011;1339;53.304;10.406;2023-12-20T06:28:40;19.90;;;7.68;;
2658;SDS011;1339;53.304;10.406;2023-12-20T06:31:07;12.43;;;5.38;;
2658;SDS011;1339;53.304;10.406;2023-12-20T06:33:34;7.45;;;5.40;;
2658;SDS011;1339;53.304;10.406;2023-12-20T06:36:02;14.93;;;6.10;;
2658;SDS011;1339;53.304;10.406;2023-12-20T06:38:29;14.35;;;7.07;;
2658;SDS011;1339;53.304;10.406;2023-12-20T06:40:57;10.65;;;6.70;;
2658;SDS011;1339;53.304;10.406;2023-12-20T06:43:24;12.75;;;6.05;;
2658;SDS011;1339;53.304;10.406;2023-12-20T06:45:51;10.05;;;5.32;;
2658;SDS011;1339;53.304;10.406;2023-12-20T06:48:19;14.75;;;5.80;;
2658;SDS011;1339;53.304;10.406;2023-12-20T06:50:46;9.88;;;5.97;;
2658;SDS011;1339;53.304;10.406;2023-12-20T06:53:13;16.23;;;7.15;;
2658;SDS011;1339;53.304;10.406;2023-12-20T06:55:40;7.55;;;5.22;;
2658;SDS011;1339;53.304;10.406;2023-12-20T06:58:08;10.88;;;4.95;;
2658;SDS011;1339;53.304;10.406;2023-12-20T07:00:35;18.08;;;5.65;;
2658;SDS011;1339;53.304;10.406;2023-12-20T07:03:03;7.72;;;4.85;;
2658;SDS011;1339;53.304;10.406;2023-12-20T07:05:30;11.18;;;5.07;;
2658;SDS011;1339;53.304;10.406;2023-12-20T07:07:58;11.13;;;4.47;;
2658;SDS011;1339;53.304;10.406;2023-12-20T07:10:25;15.68;;;4.75;;
2658;SDS011;1339;53.304;10.406;2023-12-20T07:12:52;13.43;;;4.13;;
2658;SDS011;1339;53.304;10.406;2023-12-20T07:15:21;17.10;;;4.07;;
2658;SDS011;1339;53.304;10.406;2023-12-20T07:17:48;7.70;;;4.85;;
2658;SDS011;1339;53.304;10.406;2023-12-20T07:20:15;12.90;;;4.90;;
2658;SDS011;1339;53.304;10.406;2023-12-20T07:22:42;15.77;;;5.10;;
2658;SDS011;1339;53.304;10.406;2023-12-20T07:25:09;13.02;;;4.57;;
2658;SDS011;1339;53.304;10.406;2023-12-20T07:27:37;9.05;;;4.70;;
2658;SDS011;1339;53.304;10.406;2023-12-20T07:30:04;6.70;;;4.10;;
2658;SDS011;1339;53.304;10.406;2023-12-20T07:32:33;15.70;;;5.70;;
2658;SDS011;1339;53.304;10.406;2023-12-20T07:35:00;8.77;;;5.18;;
2658;SDS011;1339;53.304;10.406;2023-12-20T07:37:28;9.95;;;4.40;;
2658;SDS011;1339;53.304;10.406;2023-12-20T07:39:55;14.55;;;5.07;;
2658;SDS011;1339;53.304;10.406;2023-12-20T07:42:22;11.82;;;6.18;;
2658;SDS011;1339;53.304;10.406;2023-12-20T07:44:49;13.85;;;5.05;;
2658;SDS011;1339;53.304;10.406;2023-12-20T07:47:16;13.63;;;4.45;;
2658;SDS011;1339;53.304;10.406;2023-12-20T07:49:47;14.10;;;4.88;;
2658;SDS011;1339;53.304;10.406;2023-12-20T07:52:16;8.20;;;4.05;;
2658;SDS011;1339;53.304;10.406;2023-12-20T07:54:43;6.90;;;4.30;;
2658;SDS011;1339;53.304;10.406;2023-12-20T07:57:10;16.80;;;5.50;;
2658;SDS011;1339;53.304;10.406;2023-12-20T07:59:37;12.35;;;5.57;;
2658;SDS011;1339;53.304;10.406;2023-12-20T08:02:05;9.35;;;3.85;;
2658;SDS011;1339;53.304;10.406;2023-12-20T08:04:32;12.35;;;3.80;;
2658;SDS011;1339;53.304;10.406;2023-12-20T08:07:01;9.18;;;3.72;;
2658;SDS011;1339;53.304;10.406;2023-12-20T08:09:28;9.38;;;3.53;;
2658;SDS011;1339;53.304;10.406;2023-12-20T08:11:56;14.95;;;4.85;;
2658;SDS011;1339;53.304;10.406;2023-12-20T08:14:24;18.45;;;5.53;;
2658;SDS011;1339;53.304;10.406;2023-12-20T08:16:52;8.02;;;3.78;;
2658;SDS011;1339;53.304;10.406;2023-12-20T08:19:19;7.65;;;4.05;;
2658;SDS011;1339;53.304;10.406;2023-12-20T08:21:46;13.02;;;4.68;;
2658;SDS011;1339;53.304;10.406;2023-12-20T08:24:14;13.82;;;4.10;;
2658;SDS011;1339;53.304;10.406;2023-12-20T08:26:41;15.95;;;6.10;;
2658;SDS011;1339;53.304;10.406;2023-12-20T08:29:08;15.55;;;5.28;;
2658;SDS011;1339;53.304;10.406;2023-12-20T08:31:35;12.85;;;4.13;;
2658;SDS011;1339;53.304;10.406;2023-12-20T08:34:02;15.25;;;4.18;;
2658;SDS011;1339;53.304;10.406;2023-12-20T08:36:30;13.05;;;3.92;;
2658;SDS011;1339;53.304;10.406;2023-12-20T08:38:57;17.23;;;5.00;;
2658;SDS011;1339;53.304;10.406;2023-12-20T08:41:27;13.68;;;5.32;;
2658;SDS011;1339;53.304;10.406;2023-12-20T08:43:54;13.55;;;4.32;;
2658;SDS011;1339;53.304;10.406;2023-12-20T08:46:21;12.93;;;4.45;;
2658;SDS011;1339;53.304;10.406;2023-12-20T08:48:48;12.60;;;4.25;;
2658;SDS011;1339;53.304;10.406;2023-12-20T08:51:15;9.63;;;4.32;;
2658;SDS011;1339;53.304;10.406;2023-12-20T08:53:42;14.43;;;4.20;;
2658;SDS011;1339;53.304;10.406;2023-12-20T08:56:10;12.88;;;4.25;;
2658;SDS011;1339;53.304;10.406;2023-12-20T08:58:38;15.23;;;8.82;;
2658;SDS011;1339;53.304;10.406;2023-12-20T09:01:05;15.57;;;7.32;;
2658;SDS011;1339;53.304;10.406;2023-12-20T09:03:33;13.60;;;5.05;;
2658;SDS011;1339;53.304;10.406;2023-12-20T09:06:00;12.45;;;4.53;;
2658;SDS011;1339;53.304;10.406;2023-12-20T09:08:27;10.45;;;4.07;;
2658;SDS011;1339;53.304;10.406;2023-12-20T09:10:54;9.40;;;3.95;;
2658;SDS011;1339;53.304;10.406;2023-12-20T09:13:21;15.02;;;4.47;;
2658;SDS011;1339;53.304;10.406;2023-12-20T09:15:54;8.15;;;4.20;;
2658;SDS011;1339;53.304;10.406;2023-12-20T09:18:21;14.10;;;4.43;;
2658;SDS011;1339;53.304;10.406;2023-12-20T09:20:48;10.75;;;3.60;;
2658;SDS011;1339;53.304;10.406;2023-12-20T09:23:15;12.48;;;3.47;;
2658;SDS011;1339;53.304;10.406;2023-12-20T09:25:43;11.93;;;3.75;;
2658;SDS011;1339;53.304;10.406;2023-12-20T09:28:10;11.50;;;3.90;;
2658;SDS011;1339;53.304;10.406;2023-12-20T09:30:37;5.90;;;3.30;;
2658;SDS011;1339;53.304;10.406;2023-12-20T09:33:06;8.70;;;3.22;;
2658;SDS011;1339;53.304;10.406;2023-12-20T09:35:34;18.00;;;5.38;;
2658;SDS011;1339;53.304;10.406;2023-12-20T09:38:01;6.75;;;3.80;;
2658;SDS011;1339;53.304;10.406;2023-12-20T09:40:28;11.68;;;3.40;;
2658;SDS011;1339;53.304;10.406;2023-12-20T09:42:56;9.18;;;3.53;;
2658;SDS011;1339;53.304;10.406;2023-12-20T09:45:24;7.57;;;3.80;;
2658;SDS011;1339;53.304;10.406;2023-12-20T09:47:52;9.93;;;4.18;;
2658;SDS011;1339;53.304;10.406;2023-12-20T09:50:21;13.30;;;4.85;;
2658;SDS011;1339;53.304;10.406;2023-12-20T09:52:49;6.93;;;3.85;;
2658;SDS011;1339;53.304;10.406;2023-12-20T09:55:17;11.13;;;4.03;;
2658;SDS011;1339;53.304;10.406;2023-12-20T09:57:44;10.43;;;3.92;;
2658;SDS011;1339;53.304;10.406;2023-12-20T10:00:12;8.77;;;3.05;;
2658;SDS011;1339;53.304;10.406;2023-12-20T10:02:40;2.63;;;1.92;;
2658;SDS011;1339;53.304;10.406;2023-12-20T10:05:09;5.00;;;2.50;;
2658;SDS011;1339;53.304;10.406;2023-12-20T10:07:45;7.35;;;2.28;;
2658;SDS011;1339;53.304;10.406;2023-12-20T10:10:12;3.60;;;2.00;;
2658;SDS011;1339;53.304;10.406;2023-12-20T10:12:40;6.00;;;2.40;;
2658;SDS011;1339;53.304;10.406;2023-12-20T10:15:07;2.75;;;1.38;;
2658;SDS011;1339;53.304;10.406;2023-12-20T10:17:35;2.65;;;1.60;;
2658;SDS011;1339;53.304;10.406;2023-12-20T10:20:03;2.97;;;1.25;;
2658;SDS011;1339;53.304;10.406;2023-12-20T10:22:34;1.75;;;1.17;;
2658;SDS011;1339;53.304;10.406;2023-12-20T10:25:03;2.35;;;1.67;;
2658;SDS011;1339;53.304;10.406;2023-12-20T10:27:30;1.20;;;1.10;;
2658;SDS011;1339;53.304;10.406;2023-12-20T10:29:58;2.03;;;1.27;;
2658;SDS011;1339;53.304;10.406;2023-12-20T10:32:26;5.85;;;1.75;;
2658;SDS011;1339;53.304;10.406;2023-12-20T10:34:54;1.20;;;1.05;;
2658;SDS011;1339;53.304;10.406;2023-12-20T10:37:22;10.05;;;0.98;;
2658;SDS011;1339;53.304;10.406;2023-12-20T10:39:49;2.95;;;1.27;;
2658;SDS011;1339;53.304;10.406;2023-12-20T10:42:19;2.38;;;1.15;;
2658;SDS011;1339;53.304;10.406;2023-12-20T10:44:47;1.38;;;1.25;;
2658;SDS011;1339;53.304;10.406;2023-12-20T10:47:14;2.45;;;0.90;;
2658;SDS011;1339;53.304;10.406;2023-12-20T10:49:42;1.38;;;1.10;;
2658;SDS011;1339;53.304;10.406;2023-12-20T10:52:09;3.28;;;0.93;;
2658;SDS011;1339;53.304;10.406;2023-12-20T10:54:38;3.47;;;1.40;;
2658;SDS011;1339;53.304;10.406;2023-12-20T10:57:06;5.15;;;1.75;;
2658;SDS011;1339;53.304;10.406;2023-12-20T10:59:36;4.45;;;1.30;;
2658;SDS011;1339;53.304;10.406;2023-12-20T11:02:03;4.72;;;1.00;;
2658;SDS011;1339;53.304;10.406;2023-12-20T11:04:33;1.00;;;0.70;;
2658;SDS011;1339;53.304;10.406;2023-12-20T11:07:05;2.13;;;0.80;;
2658;SDS011;1339;53.304;10.406;2023-12-20T11:09:35;1.25;;;0.80;;
2658;SDS011;1339;53.304;10.406;2023-12-20T11:12:07;1.75;;;0.95;;
2658;SDS011;1339;53.304;10.406;2023-12-20T11:14:40;4.05;;;1.10;;
2658;SDS011;1339;53.304;10.406;2023-12-20T11:17:09;2.42;;;1.45;;
2658;SDS011;1339;53.304;10.406;2023-12-20T11:19:38;1.70;;;1.10;;
2658;SDS011;1339;53.304;10.406;2023-12-20T11:22:05;3.35;;;1.23;;
2658;SDS011;1339;53.304;10.406;2023-12-20T11:24:32;5.57;;;1.83;;
2658;SDS011;1339;53.304;10.406;2023-12-20T11:27:03;6.07;;;1.00;;
2658;SDS011;1339;53.304;10.406;2023-12-20T11:29:33;1.08;;;0.60;;
2658;SDS011;1339;53.304;10.406;2023-12-20T11:32:03;2.78;;;1.27;;
2658;SDS011;1339;53.304;10.406;2023-12-20T11:34:31;4.45;;;1.05;;
2658;SDS011;1339;53.304;10.406;2023-12-20T11:36:59;2.63;;;1.00;;
2658;SDS011;1339;53.304;10.406;2023-12-20T11:39:26;3.45;;;1.27;;
2658;SDS011;1339;53.304;10.406;2023-12-20T11:41:55;4.00;;;1.45;;
2658;SDS011;1339;53.304;10.406;2023-12-20T11:44:24;6.90;;;1.52;;
2658;SDS011;1339;53.304;10.406;2023-12-20T11:46:52;5.65;;;2.47;;
2658;SDS011;1339;53.304;10.406;2023-12-20T11:49:24;4.93;;;1.33;;
2658;SDS011;1339;53.304;10.406;2023-12-20T11:51:51;2.60;;;1.40;;
2658;SDS011;1339;53.304;10.406;2023-12-20T11:54:18;3.08;;;0.98;;
2658;SDS011;1339;53.304;10.406;2023-12-20T11:56:45;6.85;;;3.17;;
2658;SDS011;1339;53.304;10.406;2023-12-20T11:59:12;3.08;;;1.60;;
2658;SDS011;1339;53.304;10.406;2023-12-20T12:01:40;7.25;;;1.75;;
2658;SDS011;1339;53.304;10.406;2023-12-20T12:04:07;8.80;;;2.75;;
2658;SDS011;1339;53.304;10.406;2023-12-20T12:06:36;5.05;;;1.80;;
2658;SDS011;1339;53.304;10.406;2023-12-20T12:09:03;6.35;;;1.55;;
2658;SDS011;1339;53.304;10.406;2023-12-20T12:11:31;3.20;;;1.23;;
2658;SDS011;1339;53.304;10.406;2023-12-20T12:13:58;11.80;;;2.20;;
2658;SDS011;1339;53.304;10.406;2023-12-20T12:16:26;5.13;;;1.20;;
2658;SDS011;1339;53.304;10.406;2023-12-20T12:18:56;4.85;;;1.80;;
2658;SDS011;1339;53.304;10.406;2023-12-20T12:21:23;3.67;;;2.28;;
2658;SDS011;1339;53.304;10.406;2023-12-20T12:23:51;6.95;;;2.15;;
2658;SDS011;1339;53.304;10.406;2023-12-20T12:26:19;8.30;;;1.77;;
2658;SDS011;1339;53.304;10.406;2023-12-20T12:28:46;6.78;;;1.88;;
2658;SDS011;1339;53.304;10.406;2023-12-20T12:31:13;2.30;;;1.30;;
2658;SDS011;1339;53.304;10.406;2023-12-20T12:33:40;1.60;;;1.08;;
2658;SDS011;1339;53.304;10.406;2023-12-20T12:36:10;10.15;;;2.85;;
2658;SDS011;1339;53.304;10.406;2023-12-20T12:38:37;5.70;;;1.50;;
2658;SDS011;1339;53.304;10.406;2023-12-20T12:41:05;9.45;;;2.55;;
2658;SDS011;1339;53.304;10.406;2023-12-20T12:43:33;5.72;;;1.77;;
2658;SDS011;1339;53.304;10.406;2023-12-20T12:46:00;8.82;;;2.55;;
2658;SDS011;1339;53.304;10.406;2023-12-20T12:48:27;6.22;;;1.60;;
2658;SDS011;1339;53.304;10.406;2023-12-20T12:50:54;4.55;;;1.92;;
2658;SDS011;1339;53.304;10.406;2023-12-20T12:53:24;9.43;;;2.53;;
2658;SDS011;1339;53.304;10.406;2023-12-20T12:55:52;5.82;;;2.00;;
2658;SDS011;1339;53.304;10.406;2023-12-20T12:58:20;13.70;;;1.88;;
2658;SDS011;1339;53.304;10.406;2023-12-20T13:00:50;4.90;;;1.60;;
2658;SDS011;1339;53.304;10.406;2023-12-20T13:03:17;3.10;;;2.00;;
2658;SDS011;1339;53.304;10.406;2023-12-20T13:05:44;6.28;;;1.55;;
2658;SDS011;1339;53.304;10.406;2023-12-20T13:08:12;7.35;;;1.73;;
2658;SDS011;1339;53.304;10.406;2023-12-20T13:10:39;14.43;;;2.60;;
2658;SDS011;1339;53.304;10.406;2023-12-20T13:13:06;4.45;;;2.55;;
2658;SDS011;1339;53.304;10.406;2023-12-20T13:15:34;4.35;;;2.35;;
2658;SDS011;1339;53.304;10.406;2023-12-20T13:18:02;3.10;;;1.70;;
2658;SDS011;1339;53.304;10.406;2023-12-20T13:20:29;6.15;;;1.65;;
2658;SDS011;1339;53.304;10.406;2023-12-20T13:22:56;6.53;;;2.78;;
2658;SDS011;1339;53.304;10.406;2023-12-20T13:25:24;4.50;;;1.45;;
2658;SDS011;1339;53.304;10.406;2023-12-20T13:27:53;5.05;;;1.50;;
2658;SDS011;1339;53.304;10.406;2023-12-20T13:30:20;8.25;;;2.08;;
2658;SDS011;1339;53.304;10.406;2023-12-20T13:32:49;3.50;;;1.40;;
2658;SDS011;1339;53.304;10.406;2023-12-20T13:35:16;5.53;;;1.73;;
2658;SDS011;1339;53.304;10.406;2023-12-20T13:37:43;9.43;;;2.65;;
2658;SDS011;1339;53.304;10.406;2023-12-20T13:40:11;5.30;;;2.15;;
2658;SDS011;1339;53.304;10.406;2023-12-20T13:42:38;4.72;;;2.90;;
2658;SDS011;1339;53.304;10.406;2023-12-20T13:45:06;3.85;;;1.98;;
2658;SDS011;1339;53.304;10.406;2023-12-20T13:47:33;3.58;;;1.60;;
2658;SDS011;1339;53.304;10.406;2023-12-20T13:50:02;9.02;;;2.38;;
2658;SDS011;1339;53.304;10.406;2023-12-20T13:52:30;5.53;;;1.80;;
2658;SDS011;1339;53.304;10.406;2023-12-20T13:54:57;4.38;;;1.50;;
2658;SDS011;1339;53.304;10.406;2023-12-20T13:57:24;12.73;;;2.85;;
2658;SDS011;1339;53.304;10.406;2023-12-20T13:59:51;9.40;;;2.90;;
2658;SDS011;1339;53.304;10.406;2023-12-20T14:02:19;9.68;;;2.28;;
2658;SDS011;1339;53.304;10.406;2023-12-20T14:04:46;8.93;;;2.67;;
2658;SDS011;1339;53.304;10.406;2023-12-20T14:07:14;21.13;;;4.88;;
2658;SDS011;1339;53.304;10.406;2023-12-20T14:09:41;10.90;;;3.13;;
2658;SDS011;1339;53.304;10.406;2023-12-20T14:12:10;10.90;;;2.70;;
2658;SDS011;1339;53.304;10.406;2023-12-20T14:14:37;10.75;;;3.33;;
2658;SDS011;1339;53.304;10.406;2023-12-20T14:17:04;7.15;;;2.30;;
2658;SDS011;1339;53.304;10.406;2023-12-20T14:19:31;16.85;;;4.18;;
2658;SDS011;1339;53.304;10.406;2023-12-20T14:21:59;12.40;;;3.33;;
2658;SDS011;1339;53.304;10.406;2023-12-20T14:24:28;16.50;;;3.20;;
2658;SDS011;1339;53.304;10.406;2023-12-20T14:26:55;16.75;;;4.07;;
2658;SDS011;1339;53.304;10.406;2023-12-20T14:29:23;9.63;;;3.63;;
2658;SDS011;1339;53.304;10.406;2023-12-20T14:31:50;14.05;;;4.47;;
2658;SDS011;1339;53.304;10.406;2023-12-20T14:34:17;9.23;;;3.05;;
2658;SDS011;1339;53.304;10.406;2023-12-20T14:36:44;13.25;;;4.28;;
2658;SDS011;1339;53.304;10.406;2023-12-20T14:39:11;16.30;;;3.92;;
2658;SDS011;1339;53.304;10.406;2023-12-20T14:41:41;13.60;;;4.00;;
2658;SDS011;1339;53.304;10.406;2023-12-20T14:44:08;5.05;;;2.65;;
2658;SDS011;1339;53.304;10.406;2023-12-20T14:46:36;7.07;;;3.00;;
2658;SDS011;1339;53.304;10.406;2023-12-20T14:49:03;14.35;;;4.07;;
2658;SDS011;1339;53.304;10.406;2023-12-20T14:51:30;18.38;;;4.05;;
2658;SDS011;1339;53.304;10.406;2023-12-20T14:53:57;9.73;;;4.20;;
2658;SDS011;1339;53.304;10.406;2023-12-20T14:56:24;14.77;;;4.63;;